createdAt,value
2023-01-15T00:02:07.413Z,100082.59
2023-01-15T00:04:36.220Z,100071.50
2023-01-15T00:07:04.445Z,100065.50
2023-01-15T00:09:33.884Z,100061.19
2023-01-15T00:12:02.276Z,100063.81
2023-01-15T00:14:30.128Z,100067.22
2023-01-15T00:16:58.099Z,100068.97
2023-01-15T00:19:25.909Z,100063.78
2023-01-15T00:21:53.970Z,100068.91
2023-01-15T00:24:38.663Z,100051.06
2023-01-15T00:27:27.553Z,100043.38
2023-01-15T00:29:55.473Z,100030.59
2023-01-15T00:32:23.256Z,100029.78
2023-01-15T00:34:51.192Z,100025.47
2023-01-15T00:37:19.089Z,100029.72
2023-01-15T00:39:47.034Z,100025.47
2023-01-15T00:42:17.007Z,100017.84
2023-01-15T00:44:46.522Z,99999.97
2023-01-15T00:47:15.142Z,99989.75
2023-01-15T00:50:10.480Z,99979.53
2023-01-15T00:52:38.812Z,99963.34
2023-01-15T00:55:07.982Z,99952.28
2023-01-15T00:57:37.222Z,99942.88
2023-01-15T01:00:06.616Z,99943.75
2023-01-15T01:02:34.747Z,99938.66
2023-01-15T01:05:02.790Z,99925.91
2023-01-15T01:07:31.152Z,99912.28
2023-01-15T01:09:59.150Z,99901.22
2023-01-15T01:12:27.081Z,99906.31
2023-01-15T01:14:57.676Z,99904.59
2023-01-15T01:17:25.614Z,99897.88
2023-01-15T01:19:53.435Z,99895.28
2023-01-15T01:22:21.379Z,99883.34
2023-01-15T01:24:49.401Z,99873.09
2023-01-15T01:27:18.939Z,99870.56
2023-01-15T01:29:46.832Z,99858.66
2023-01-15T01:32:16.070Z,99849.31
2023-01-15T01:37:36.096Z,99822.06
2023-01-15T01:40:04.842Z,99817.91
2023-01-15T01:42:32.970Z,99794.84
2023-01-15T01:45:24.959Z,99783.84
2023-01-15T01:47:56.320Z,99755.78
2023-01-15T01:50:25.067Z,99751.53
2023-01-15T01:53:04.628Z,99722.63
2023-01-15T01:55:35.555Z,99692.88
2023-01-15T01:58:07.382Z,99685.28
2023-01-15T02:00:37.801Z,99624.06
2023-01-15T02:03:09.967Z,99569.75
2023-01-15T02:05:40.818Z,99529.00
2023-01-15T02:08:08.761Z,99494.22
2023-01-15T02:10:36.760Z,99462.78
2023-01-15T02:13:09.181Z,99430.63
2023-01-15T02:15:39.867Z,99373.69
2023-01-15T02:18:16.015Z,99348.28
2023-01-15T02:20:51.563Z,99305.13
2023-01-15T02:23:34.979Z,99254.13
2023-01-15T02:26:22.521Z,99216.06
2023-01-15T02:28:55.749Z,99142.41
2023-01-15T02:31:30.713Z,99074.59
2023-01-15T02:34:03.673Z,99024.66
2023-01-15T02:36:36.835Z,98995.06
2023-01-15T02:39:09.642Z,98924.78
2023-01-15T02:41:43.604Z,98854.53
2023-01-15T02:44:15.585Z,98822.50
2023-01-15T02:46:45.239Z,98781.03
2023-01-15T02:49:18.192Z,98741.34
2023-01-15T02:51:53.010Z,98710.94
2023-01-15T02:54:26.528Z,98679.63
2023-01-15T02:56:54.528Z,98638.28
2023-01-15T02:59:28.487Z,98623.88
2023-01-15T03:02:01.628Z,98596.88
2023-01-15T03:04:33.770Z,98581.72
2023-01-15T03:07:08.162Z,98575.81
2023-01-15T03:09:38.915Z,98552.16
2023-01-15T03:12:11.374Z,98531.81
2023-01-15T03:14:50.557Z,98524.28
2023-01-15T03:17:23.052Z,98504.06
2023-01-15T03:19:57.503Z,98481.19
2023-01-15T03:22:30.258Z,98492.25
2023-01-15T03:25:01.229Z,98469.41
2023-01-15T03:27:34.417Z,98471.97
2023-01-15T03:30:30.194Z,98448.38
2023-01-15T03:32:58.316Z,98434.00
2023-01-15T03:35:47.893Z,98404.47
2023-01-15T03:38:28.060Z,98385.09
2023-01-15T03:41:04.343Z,98375.00
2023-01-15T03:43:42.862Z,98346.31
2023-01-15T03:46:20.974Z,98328.69
2023-01-15T03:48:56.688Z,98277.19
2023-01-15T03:51:30.165Z,98254.47
2023-01-15T03:54:00.623Z,98233.41
2023-01-15T03:56:34.209Z,98236.84
2023-01-15T03:59:06.793Z,98219.09
2023-01-15T04:02:00.295Z,98202.25
2023-01-15T04:04:29.554Z,98200.59
2023-01-15T04:07:00.001Z,98191.25
2023-01-15T04:09:29.005Z,98192.16
2023-01-15T04:12:01.100Z,98182.06
2023-01-15T04:14:33.188Z,98172.81
2023-01-15T04:17:08.516Z,98160.19
2023-01-15T04:19:36.579Z,98149.16
2023-01-15T04:22:07.376Z,98153.34
2023-01-15T04:24:35.525Z,98147.50
2023-01-15T04:27:03.367Z,98134.00
2023-01-15T04:29:31.242Z,98118.00
2023-01-15T04:31:59.096Z,98129.78
2023-01-15T04:34:29.696Z,98123.88
2023-01-15T04:36:58.614Z,98127.31
2023-01-15T04:39:26.667Z,98117.25
2023-01-15T04:42:12.086Z,98108.75
2023-01-15T04:44:40.543Z,98109.63
2023-01-15T04:47:08.431Z,98108.75
2023-01-15T04:49:37.720Z,98121.44
2023-01-15T04:52:05.780Z,98114.69
2023-01-15T04:54:33.817Z,98116.34
2023-01-15T04:57:01.756Z,98115.53
2023-01-15T04:59:29.781Z,98107.97
2023-01-15T05:02:04.522Z,98097.00
2023-01-15T05:04:35.265Z,98086.06
2023-01-15T05:07:05.793Z,98083.56
2023-01-15T05:09:33.915Z,98081.88
2023-01-15T05:12:02.109Z,98067.53
2023-01-15T05:14:30.175Z,98070.09
2023-01-15T05:16:58.135Z,98075.13
2023-01-15T05:19:27.769Z,98077.66
2023-01-15T05:21:55.961Z,98064.16
2023-01-15T05:24:25.272Z,98064.16
2023-01-15T05:26:53.817Z,98076.84
2023-01-15T05:29:21.642Z,98067.53
2023-01-15T05:31:49.769Z,98073.47
2023-01-15T05:34:17.772Z,98059.13
2023-01-15T05:36:45.806Z,98060.84
2023-01-15T05:39:13.675Z,98054.09
2023-01-15T05:41:53.226Z,98052.41
2023-01-15T05:44:24.022Z,98046.44
2023-01-15T05:46:53.509Z,98063.41
2023-01-15T05:49:23.388Z,98059.97
2023-01-15T05:51:52.182Z,98070.91
2023-01-15T05:54:22.988Z,98070.03
2023-01-15T05:56:52.605Z,98075.13
2023-01-15T05:59:22.603Z,98075.13
2023-01-15T06:01:50.919Z,98068.38
2023-01-15T06:04:21.149Z,98071.75
2023-01-15T06:06:50.056Z,98069.25
2023-01-15T06:09:18.161Z,98071.75
2023-01-15T06:11:47.203Z,98070.84
2023-01-15T06:14:16.891Z,98088.53
2023-01-15T06:16:44.817Z,98094.47
2023-01-15T06:19:14.611Z,98106.31
2023-01-15T06:21:42.848Z,98101.22
2023-01-15T06:24:11.140Z,98111.25
2023-01-15T06:26:40.348Z,98112.97
2023-01-15T06:29:08.344Z,98128.16
2023-01-15T06:31:37.566Z,98134.91
2023-01-15T06:34:05.560Z,98140.72
2023-01-15T06:36:33.435Z,98132.28
2023-01-15T06:39:01.299Z,98144.09
2023-01-15T06:41:47.051Z,98154.25
2023-01-15T06:44:34.965Z,98156.72
2023-01-15T06:47:24.302Z,98148.31
2023-01-15T06:49:54.807Z,98143.28
2023-01-15T06:52:23.784Z,98145.84
2023-01-15T06:54:52.096Z,98138.19
2023-01-15T06:57:20.256Z,98149.97
2023-01-15T06:59:48.667Z,98155.06
2023-01-15T07:02:18.458Z,98137.28
2023-01-15T07:04:50.007Z,98138.19
2023-01-15T07:07:19.419Z,98149.22
2023-01-15T07:09:47.617Z,98149.16
2023-01-15T07:12:15.453Z,98157.56
2023-01-15T07:14:43.353Z,98150.78
2023-01-15T07:17:11.337Z,98160.06
2023-01-15T07:19:41.223Z,98175.25
2023-01-15T07:22:10.753Z,98173.59
2023-01-15T07:24:38.940Z,98180.34
2023-01-15T07:27:07.539Z,98171.03
2023-01-15T07:29:35.441Z,98176.97
2023-01-15T07:32:03.364Z,98180.34
2023-01-15T07:34:31.235Z,98180.34
2023-01-15T07:37:00.449Z,98176.97
2023-01-15T07:39:28.501Z,98179.53
2023-01-15T07:42:12.883Z,98170.22
2023-01-15T07:44:58.523Z,98167.72
2023-01-15T07:47:45.188Z,98154.19
2023-01-15T07:50:14.868Z,98151.63
2023-01-15T07:52:44.366Z,98152.53
2023-01-15T07:55:13.657Z,98148.25
2023-01-15T07:57:42.275Z,98149.97
2023-01-15T08:00:13.592Z,98150.03
2023-01-15T08:02:42.031Z,98144.88
2023-01-15T08:05:12.421Z,98149.97
2023-01-15T08:07:41.943Z,98139.84
2023-01-15T08:10:13.370Z,98136.44
2023-01-15T08:12:59.306Z,98142.44
2023-01-15T08:15:27.290Z,98138.19
2023-01-15T08:17:55.447Z,98140.72
2023-01-15T08:20:25.506Z,98128.03
2023-01-15T08:22:54.097Z,98133.16
2023-01-15T08:25:26.116Z,98127.97
2023-01-15T08:27:54.792Z,98135.63
2023-01-15T08:30:24.996Z,98129.72
2023-01-15T08:33:18.269Z,98115.38
2023-01-15T08:35:46.172Z,98121.31
2023-01-15T08:38:14.042Z,98122.16
2023-01-15T08:40:57.637Z,98115.38
2023-01-15T08:43:25.589Z,98112.00
2023-01-15T08:45:53.777Z,98108.63
2023-01-15T08:48:21.640Z,98115.38
2023-01-15T08:50:50.605Z,98117.09
2023-01-15T08:53:19.176Z,98115.38
2023-01-15T08:55:48.774Z,98125.53
2023-01-15T08:58:17.071Z,98123.81
2023-01-15T09:00:45.542Z,98118.69
2023-01-15T09:03:13.621Z,98120.41
2023-01-15T09:05:41.745Z,98122.94
2023-01-15T09:08:09.666Z,98129.69
2023-01-15T09:10:37.552Z,98138.94
2023-01-15T09:13:06.769Z,98139.75
2023-01-15T09:15:34.982Z,98143.16
2023-01-15T09:18:02.997Z,98142.31
2023-01-15T09:20:31.906Z,98149.91
2023-01-15T09:23:00.886Z,98148.19
2023-01-15T09:25:28.911Z,98152.41
2023-01-15T09:27:57.338Z,98155.78
2023-01-15T09:30:26.590Z,98160.00
2023-01-15T09:32:54.527Z,98162.56
2023-01-15T09:35:23.616Z,98165.03
2023-01-15T09:37:52.991Z,98160.00
2023-01-15T09:40:44.862Z,98155.78
2023-01-15T09:43:32.024Z,98165.88
2023-01-15T09:46:09.917Z,98174.28
2023-01-15T09:48:50.598Z,98177.66
2023-01-15T09:51:28.064Z,98183.56
2023-01-15T09:54:23.177Z,98185.22
2023-01-15T09:56:51.317Z,98193.69
2023-01-15T09:59:23.832Z,98191.97
2023-01-15T10:01:53.882Z,98191.09
2023-01-15T10:04:35.225Z,98202.13
2023-01-15T10:07:09.835Z,98201.28
2023-01-15T10:09:42.061Z,98203.78
2023-01-15T10:12:36.438Z,98211.38
2023-01-15T10:15:16.156Z,98214.72
2023-01-15T10:17:48.629Z,98219.75
2023-01-15T10:20:21.423Z,98221.41
2023-01-15T10:23:00.366Z,98238.31
2023-01-15T10:25:36.659Z,98240.81
2023-01-15T10:28:15.778Z,98246.69
2023-01-15T10:30:49.418Z,98248.34
2023-01-15T10:33:46.453Z,98260.97
2023-01-15T10:36:21.195Z,98265.25
2023-01-15T10:38:58.983Z,98263.50
2023-01-15T10:41:53.660Z,98276.97
2023-01-15T10:44:31.570Z,98279.50
2023-01-15T10:47:02.431Z,98293.03
2023-01-15T10:49:32.450Z,98291.34
2023-01-15T10:52:06.990Z,98299.78
2023-01-15T10:54:41.028Z,98303.16
2023-01-15T10:57:13.615Z,98302.25
2023-01-15T10:59:46.295Z,98314.88
2023-01-15T11:02:26.200Z,98326.72
2023-01-15T11:04:55.667Z,98325.00
2023-01-15T11:07:32.309Z,98329.28
2023-01-15T11:10:05.124Z,98323.34
2023-01-15T11:12:51.201Z,98310.63
2023-01-15T11:15:42.346Z,98320.78
2023-01-15T11:18:33.578Z,98319.13
2023-01-15T11:21:04.026Z,98321.69
2023-01-15T11:23:36.644Z,98322.50
2023-01-15T11:26:04.626Z,98335.22
2023-01-15T11:28:36.464Z,98319.91
2023-01-15T11:31:04.714Z,98325.00
2023-01-15T11:33:33.130Z,98325.91
2023-01-15T11:36:04.601Z,98323.34
2023-01-15T11:38:44.017Z,98313.16
2023-01-15T11:41:21.709Z,98309.03
2023-01-15T11:44:16.772Z,98295.50
2023-01-15T11:47:05.002Z,98324.09
2023-01-15T11:49:50.307Z,98377.22
2023-01-15T11:52:23.637Z,98433.78
2023-01-15T11:54:54.023Z,98453.13
2023-01-15T11:57:28.828Z,98464.13
2023-01-15T11:59:57.907Z,98457.34
2023-01-15T12:02:36.341Z,98453.13
2023-01-15T12:05:05.535Z,98456.50
2023-01-15T12:07:40.820Z,98478.44
2023-01-15T12:10:21.657Z,98501.22
2023-01-15T12:13:05.356Z,98499.56
2023-01-15T12:15:41.344Z,98497.84
2023-01-15T12:18:57.341Z,98523.16
2023-01-15T12:21:48.094Z,98534.03
2023-01-15T12:24:54.120Z,98559.41
2023-01-15T12:27:46.988Z,98579.66
2023-01-15T12:30:23.541Z,98579.72
2023-01-15T12:32:56.933Z,98583.03
2023-01-15T12:35:31.391Z,98599.97
2023-01-15T12:38:05.734Z,98632.06
2023-01-15T12:40:45.547Z,98656.44
2023-01-15T12:43:35.489Z,98688.59
2023-01-15T12:46:06.147Z,98701.25
2023-01-15T12:48:41.043Z,98678.44
2023-01-15T12:51:14.689Z,98650.59
2023-01-15T12:53:45.940Z,98600.78
2023-01-15T12:56:23.139Z,98610.88
2023-01-15T12:58:55.667Z,98621.88
2023-01-15T13:01:32.887Z,98636.22
2023-01-15T13:04:14.065Z,98638.72
2023-01-15T13:06:49.975Z,98625.22
2023-01-15T13:09:31.929Z,98630.28
2023-01-15T13:12:01.520Z,98628.59
2023-01-15T13:14:30.222Z,98637.88
2023-01-15T13:17:01.482Z,98633.66
2023-01-15T13:19:38.431Z,98629.44
2023-01-15T13:22:13.872Z,98616.75
2023-01-15T13:25:24.860Z,98616.81
2023-01-15T13:28:09.156Z,98607.47
2023-01-15T13:30:48.812Z,98609.22
2023-01-15T13:33:25.035Z,98595.66
2023-01-15T13:35:56.288Z,98593.13
2023-01-15T13:38:29.181Z,98581.38
2023-01-15T13:40:58.714Z,98576.19
2023-01-15T13:43:35.965Z,98579.59
2023-01-15T13:46:06.641Z,98574.53
2023-01-15T13:48:38.278Z,98590.56
2023-01-15T13:51:08.096Z,98582.91
2023-01-15T13:53:39.527Z,98593.94
2023-01-15T13:56:09.864Z,98603.19
2023-01-15T13:58:43.577Z,98618.41
2023-01-15T14:01:25.835Z,98636.22
2023-01-15T14:04:03.828Z,98636.16
2023-01-15T14:06:43.733Z,98646.31
2023-01-15T14:09:13.547Z,98650.50
2023-01-15T14:11:51.047Z,98650.50
2023-01-15T14:14:45.941Z,98642.88
2023-01-15T14:17:41.540Z,98637.75
2023-01-15T14:20:34.529Z,98630.22
2023-01-15T14:23:17.181Z,98631.88
2023-01-15T14:25:57.397Z,98618.38
2023-01-15T14:28:44.948Z,98615.81
2023-01-15T14:31:28.362Z,98620.03
2023-01-15T14:34:13.942Z,98617.50
2023-01-15T14:36:49.940Z,98625.94
2023-01-15T14:39:32.656Z,98642.84
2023-01-15T14:42:25.355Z,98641.09
2023-01-15T14:45:01.103Z,98635.19
2023-01-15T14:47:35.927Z,98621.69
2023-01-15T14:50:24.871Z,98608.19
2023-01-15T14:52:54.840Z,98592.97
2023-01-15T14:55:23.682Z,98588.75
2023-01-15T14:57:59.943Z,98565.91
2023-01-15T15:00:33.949Z,98562.53
2023-01-15T15:03:14.151Z,98557.47
2023-01-15T15:05:45.197Z,98542.25
2023-01-15T15:08:15.487Z,98534.69
2023-01-15T15:10:46.862Z,98512.75
2023-01-15T15:13:19.309Z,98491.66
2023-01-15T15:15:53.444Z,98478.91
2023-01-15T15:18:32.371Z,98474.78
2023-01-15T15:21:07.549Z,98457.06
2023-01-15T15:23:41.469Z,98445.22
2023-01-15T15:26:22.060Z,98441.00
2023-01-15T15:29:00.372Z,98426.66
2023-01-15T15:31:30.534Z,98433.47
2023-01-15T15:34:00.077Z,98433.34
2023-01-15T15:36:30.202Z,98448.63
2023-01-15T15:39:00.583Z,98458.72
2023-01-15T15:41:51.062Z,98462.06
2023-01-15T15:44:46.058Z,98479.81
2023-01-15T15:47:38.015Z,98490.00
2023-01-15T15:50:08.527Z,98484.81
2023-01-15T15:52:36.786Z,98487.38
2023-01-15T15:55:06.204Z,98487.31
2023-01-15T15:57:35.889Z,98492.44
2023-01-15T16:00:05.188Z,98491.59
2023-01-15T16:02:36.586Z,98492.44
2023-01-15T16:05:23.974Z,98492.44
2023-01-15T16:07:53.474Z,98491.53
2023-01-15T16:10:26.538Z,98506.81
2023-01-15T16:12:56.128Z,98495.75
2023-01-15T16:15:27.028Z,98488.16
2023-01-15T16:17:55.880Z,98485.66
2023-01-15T16:20:26.283Z,98468.69
2023-01-15T16:22:57.045Z,98465.38
2023-01-15T16:25:27.282Z,98452.72
2023-01-15T16:27:55.430Z,98442.56
2023-01-15T16:30:24.585Z,98444.28
2023-01-15T16:32:54.463Z,98439.19
2023-01-15T16:35:26.346Z,98444.28
2023-01-15T16:37:56.852Z,98441.75
2023-01-15T16:40:29.493Z,98443.44
2023-01-15T16:43:03.456Z,98454.38
2023-01-15T16:45:31.856Z,98456.94
2023-01-15T16:48:27.495Z,98445.13
2023-01-15T16:50:58.201Z,98434.94
2023-01-15T16:53:38.675Z,98436.72
2023-01-15T16:56:54.171Z,98426.50
2023-01-15T16:59:51.981Z,98442.59
2023-01-15T17:02:20.558Z,98434.94
2023-01-15T17:04:51.537Z,98424.78
2023-01-15T17:07:24.291Z,98428.25
2023-01-15T17:09:54.564Z,98415.53
2023-01-15T17:12:27.645Z,98415.53
2023-01-15T17:14:55.749Z,98413.03
2023-01-15T17:17:28.663Z,98405.47
2023-01-15T17:19:57.962Z,98400.38
2023-01-15T17:25:23.941Z,98385.16
2023-01-15T17:27:51.890Z,98394.50
2023-01-15T17:30:20.090Z,98398.63
2023-01-15T17:32:48.333Z,98405.41
2023-01-15T17:35:23.954Z,98400.38
2023-01-15T17:37:53.377Z,98389.31
2023-01-15T17:40:22.006Z,98399.53
2023-01-15T17:42:50.542Z,98400.38
2023-01-15T17:45:20.606Z,98402.91
2023-01-15T17:47:49.037Z,98382.63
2023-01-15T17:50:18.097Z,98383.44
2023-01-15T17:52:46.410Z,98365.66
2023-01-15T17:55:35.510Z,98367.38
2023-01-15T17:58:21.861Z,98376.75
2023-01-15T18:01:08.390Z,98382.69
2023-01-15T18:03:56.921Z,98364.00
2023-01-15T18:06:25.020Z,98360.69
2023-01-15T18:08:56.750Z,98339.56
2023-01-15T18:11:26.195Z,98335.38
2023-01-15T18:13:56.041Z,98320.94
2023-01-15T18:16:25.385Z,98327.72
2023-01-15T18:18:54.429Z,98325.22
2023-01-15T18:21:22.827Z,98315.97
2023-01-15T18:23:50.814Z,98313.41
2023-01-15T18:26:18.672Z,98310.06
2023-01-15T18:28:48.621Z,98300.81
2023-01-15T18:31:16.670Z,98296.53
2023-01-15T18:33:45.617Z,98288.06
2023-01-15T18:36:15.483Z,98296.53
2023-01-15T18:38:45.118Z,98310.06
2023-01-15T18:41:34.719Z,98304.06
2023-01-15T18:44:23.511Z,98310.03
2023-01-15T18:46:53.885Z,98316.81
2023-01-15T18:49:22.140Z,98308.31
2023-01-15T18:52:12.970Z,98307.47
2023-01-15T18:54:40.912Z,98296.53
2023-01-15T18:57:08.933Z,98293.16
2023-01-15T18:59:38.260Z,98269.53
2023-01-15T19:02:07.130Z,98251.78
2023-01-15T19:04:35.046Z,98245.94
2023-01-15T19:07:03.706Z,98245.13
2023-01-15T19:09:31.885Z,98243.41
2023-01-15T19:11:59.852Z,98240.00
2023-01-15T19:14:45.174Z,98246.78
2023-01-15T19:17:34.097Z,98250.19
2023-01-15T19:20:02.197Z,98250.13
2023-01-15T19:22:47.683Z,98254.34
2023-01-15T19:25:15.667Z,98262.81
2023-01-15T19:27:43.665Z,98266.97
2023-01-15T19:30:12.543Z,98272.03
2023-01-15T19:32:41.823Z,98272.03
2023-01-15T19:35:10.155Z,98270.31
2023-01-15T19:37:39.882Z,98272.88
2023-01-15T19:40:13.090Z,98271.13
2023-01-15T19:43:00.691Z,98266.94
2023-01-15T19:45:46.056Z,98261.03
2023-01-15T19:48:35.902Z,98245.91
2023-01-15T19:51:03.794Z,98235.72
2023-01-15T19:53:32.062Z,98245.94
2023-01-15T19:56:00.003Z,98227.31
2023-01-15T19:58:28.086Z,98224.81
2023-01-15T20:00:55.984Z,98217.25
2023-01-15T20:03:25.249Z,98205.41
2023-01-15T20:05:53.525Z,98198.66
2023-01-15T20:08:21.516Z,98203.75
2023-01-15T20:10:51.487Z,98191.88
2023-01-15T20:13:39.065Z,98201.19
2023-01-15T20:16:08.843Z,98191.13
2023-01-15T20:18:38.287Z,98180.19
2023-01-15T20:21:06.655Z,98168.31
2023-01-15T20:23:36.603Z,98161.56
2023-01-15T20:26:06.496Z,98155.69
2023-01-15T20:28:35.950Z,98154.03
2023-01-15T20:31:04.363Z,98158.25
2023-01-15T20:33:32.851Z,98156.59
2023-01-15T20:36:05.412Z,98152.31
2023-01-15T20:38:33.159Z,98155.69
2023-01-15T20:41:21.648Z,98157.34
2023-01-15T20:44:06.868Z,98168.31
2023-01-15T20:46:35.163Z,98168.25
2023-01-15T20:49:20.813Z,98164.94
2023-01-15T20:51:50.355Z,98170.81
2023-01-15T20:54:18.443Z,98175.91
2023-01-15T20:56:46.459Z,98175.91
2023-01-15T20:59:14.496Z,98177.59
2023-01-15T21:01:42.428Z,98176.75
2023-01-15T21:04:12.727Z,98180.09
2023-01-15T21:06:40.784Z,98171.69
2023-01-15T21:09:10.003Z,98161.56
2023-01-15T21:11:38.164Z,98156.44
2023-01-15T21:14:06.142Z,98158.25
2023-01-15T21:16:33.998Z,98153.97
2023-01-15T21:19:04.534Z,98157.28
2023-01-15T21:21:32.728Z,98156.44
2023-01-15T21:24:01.560Z,98153.16
2023-01-15T21:26:31.994Z,98148.97
2023-01-15T21:28:59.977Z,98143.94
2023-01-15T21:31:28.046Z,98138.00
2023-01-15T21:33:56.904Z,98135.38
2023-01-15T21:36:25.366Z,98137.94
2023-01-15T21:38:54.563Z,98137.09
2023-01-15T21:41:44.809Z,98137.09
2023-01-15T21:44:34.179Z,98142.19
2023-01-15T21:47:03.935Z,98143.00
2023-01-15T21:49:33.317Z,98142.19
2023-01-15T21:52:02.495Z,98143.84
2023-01-15T21:54:31.554Z,98139.63
2023-01-15T21:57:00.520Z,98142.22
2023-01-15T21:59:29.796Z,98138.75
2023-01-15T22:01:59.204Z,98135.38
2023-01-15T22:04:28.901Z,98127.88
2023-01-15T22:06:57.133Z,98116.00
2023-01-15T22:09:25.103Z,98118.56
2023-01-15T22:11:53.040Z,98113.44
2023-01-15T22:14:25.277Z,98113.50
2023-01-15T22:16:55.653Z,98106.72
2023-01-15T22:19:26.030Z,98105.91
2023-01-15T22:21:55.724Z,98101.75
2023-01-15T22:24:27.072Z,98084.78
2023-01-15T22:26:55.249Z,98078.97
2023-01-15T22:29:24.182Z,98068.91
2023-01-15T22:31:52.520Z,98059.59
2023-01-15T22:34:23.565Z,98055.38
2023-01-15T22:36:52.240Z,98041.84
2023-01-15T22:39:21.254Z,98041.09
2023-01-15T22:42:06.498Z,98035.16
2023-01-15T22:44:34.862Z,98031.03
2023-01-15T22:47:03.290Z,98027.66
2023-01-15T22:49:33.074Z,98023.44
2023-01-15T22:52:01.209Z,98021.75
2023-01-15T22:54:29.086Z,98007.34
2023-01-15T22:56:56.971Z,98010.88
2023-01-15T22:59:25.027Z,97997.28
2023-01-15T23:01:53.027Z,97999.91
2023-01-15T23:06:36.304Z,97988.09
2023-01-15T23:09:04.497Z,97974.50
2023-01-15T23:11:32.458Z,97980.50
2023-01-15T23:14:00.313Z,97982.97
2023-01-15T23:16:28.384Z,97987.25
2023-01-15T23:18:56.483Z,97992.28
2023-01-15T23:21:26.616Z,97986.34
2023-01-15T23:23:56.549Z,97986.34
2023-01-15T23:26:25.795Z,97982.09
2023-01-15T23:28:54.123Z,97977.06
2023-01-15T23:31:22.355Z,97977.13
2023-01-15T23:33:50.499Z,97976.31
2023-01-15T23:36:18.561Z,97969.53
2023-01-15T23:38:47.620Z,97969.53
2023-01-15T23:41:18.991Z,97967.00
2023-01-15T23:44:04.699Z,97961.97
2023-01-15T23:46:36.107Z,97961.97
2023-01-15T23:49:06.082Z,97960.25
2023-01-15T23:51:35.479Z,97963.63
2023-01-15T23:54:03.983Z,97957.69
2023-01-15T23:56:34.048Z,97957.72
2023-01-15T23:59:01.906Z,97964.50
